CheckWX is a tool to help pilots better visualize weather data.  It is not intended as a substitute for an official pre-flight weather briefing.

05:17:41 UTC

KPMD METAR
Palmdale Usaf Plant 42 Airport
Palmdale, California, USA
Current

25 mins ago

KPMD 200453Z 29013KT 10SM CLR 03/M04 A3008 RMK AO2 SLP195 T00281039
Observed
Feb-20 @ 04:53 UTC
Wind
  • 290° at 13 KTS
Visibility
16,093 meters
Flight Rules
VFR
Cloud Levels
  • Clear skies
Temperature
C / 37°F
Dewpoint
-4°C / 25°F
Humidity
60%
Altimeter
30.08" Hg
Pressure
1019.5 hPa
Previous

1 hour ago

KPMD 200353Z 29013KT 10SM CLR 03/M04 A3008 RMK AO2 SLP196 T00331039
Observed
Feb-20 @ 03:53 UTC
Wind
  • 290° at 13 KTS
Visibility
16,093 meters
Flight Rules
VFR
Cloud Levels
  • Clear skies
Temperature
C / 37°F
Dewpoint
-4°C / 25°F
Humidity
60%
Altimeter
30.08" Hg
Pressure
1019.6 hPa
Previous

2 hours ago

KPMD 200253Z 29013KT 10SM CLR 04/M04 A3007 RMK AO2 SLP194 T00391039 55000
Observed
Feb-20 @ 02:53 UTC
Wind
  • 290° at 13 KTS
Visibility
16,093 meters
Flight Rules
VFR
Cloud Levels
  • Clear skies
Temperature
C / 39°F
Dewpoint
-4°C / 25°F
Humidity
56%
Altimeter
30.07" Hg
Pressure
1019.4 hPa